sensor_id;sensor_type;location;lat;lon;timestamp;pressure;altitude;pressure_sealevel;temperature;humidity
40612;BME280;26317;44.894;20.286;2024-02-04T00:00:46;101387.38;;;8.30;85.18
40612;BME280;26317;44.894;20.286;2024-02-04T00:03:24;101380.56;;;8.27;84.94
40612;BME280;26317;44.894;20.286;2024-02-04T00:05:59;101380.47;;;8.22;85.23
40612;BME280;26317;44.894;20.286;2024-02-04T00:08:35;101392.22;;;8.21;84.67
40612;BME280;26317;44.894;20.286;2024-02-04T00:11:14;101394.78;;;8.16;85.08
40612;BME280;26317;44.894;20.286;2024-02-04T00:13:47;101400.59;;;8.13;85.20
40612;BME280;26317;44.894;20.286;2024-02-04T00:16:29;101402.19;;;8.14;85.22
40612;BME280;26317;44.894;20.286;2024-02-04T00:19:13;101391.84;;;8.06;84.99
40612;BME280;26317;44.894;20.286;2024-02-04T00:21:47;101391.63;;;8.08;85.35
40612;BME280;26317;44.894;20.286;2024-02-04T00:24:27;101390.00;;;8.07;85.34
40612;BME280;26317;44.894;20.286;2024-02-04T00:27:09;101392.94;;;8.05;84.83
40612;BME280;26317;44.894;20.286;2024-02-04T00:29:43;101382.13;;;8.00;84.73
40612;BME280;26317;44.894;20.286;2024-02-04T00:32:20;101390.00;;;7.95;85.03
40612;BME280;26317;44.894;20.286;2024-02-04T00:35:01;101396.53;;;7.88;84.93
40612;BME280;26317;44.894;20.286;2024-02-04T00:37:32;101401.50;;;7.84;85.14
40612;BME280;26317;44.894;20.286;2024-02-04T00:40:05;101398.13;;;7.77;84.95
40612;BME280;26317;44.894;20.286;2024-02-04T00:42:50;101394.97;;;7.68;85.57
40612;BME280;26317;44.894;20.286;2024-02-04T00:45:27;101393.25;;;7.74;86.11
40612;BME280;26317;44.894;20.286;2024-02-04T00:48:04;101398.38;;;7.75;85.93
40612;BME280;26317;44.894;20.286;2024-02-04T00:50:46;101395.00;;;7.80;85.87
40612;BME280;26317;44.894;20.286;2024-02-04T00:53:22;101388.84;;;7.79;85.84
40612;BME280;26317;44.894;20.286;2024-02-04T00:56:03;101395.81;;;7.80;85.81
40612;BME280;26317;44.894;20.286;2024-02-04T00:58:39;101393.94;;;7.81;85.78
40612;BME280;26317;44.894;20.286;2024-02-04T01:01:23;101390.69;;;7.79;85.74
40612;BME280;26317;44.894;20.286;2024-02-04T01:03:55;101385.38;;;7.79;85.49
40612;BME280;26317;44.894;20.286;2024-02-04T01:06:42;101383.84;;;7.83;85.54
40612;BME280;26317;44.894;20.286;2024-02-04T01:09:30;101388.16;;;7.84;85.28
40612;BME280;26317;44.894;20.286;2024-02-04T01:12:07;101383.16;;;7.76;85.17
40612;BME280;26317;44.894;20.286;2024-02-04T01:14:46;101385.94;;;7.81;85.33
40612;BME280;26317;44.894;20.286;2024-02-04T01:17:28;101396.16;;;7.84;85.29
40612;BME280;26317;44.894;20.286;2024-02-04T01:20:07;101382.34;;;7.75;85.69
40612;BME280;26317;44.894;20.286;2024-02-04T01:22:45;101395.34;;;7.83;85.58
40612;BME280;26317;44.894;20.286;2024-02-04T01:25:21;101393.94;;;7.81;85.85
40612;BME280;26317;44.894;20.286;2024-02-04T01:28:12;101390.22;;;7.82;86.16
40612;BME280;26317;44.894;20.286;2024-02-04T01:30:57;101390.09;;;7.77;85.75
40612;BME280;26317;44.894;20.286;2024-02-04T01:33:34;101400.91;;;7.82;86.12
40612;BME280;26317;44.894;20.286;2024-02-04T01:36:12;101385.94;;;7.81;85.97
40612;BME280;26317;44.894;20.286;2024-02-04T01:38:58;101392.91;;;7.82;85.78
40612;BME280;26317;44.894;20.286;2024-02-04T01:41:39;101395.34;;;7.83;85.73
40612;BME280;26317;44.894;20.286;2024-02-04T01:44:15;101388.72;;;7.86;85.57
40612;BME280;26317;44.894;20.286;2024-02-04T01:46:51;101371.19;;;7.78;85.65
40612;BME280;26317;44.894;20.286;2024-02-04T01:49:28;101388.25;;;7.89;85.82
40612;BME280;26317;44.894;20.286;2024-02-04T01:52:01;101381.88;;;7.90;85.45
40612;BME280;26317;44.894;20.286;2024-02-04T01:54:42;101387.81;;;7.92;85.32
40612;BME280;26317;44.894;20.286;2024-02-04T01:57:28;101378.03;;;7.86;85.28
40612;BME280;26317;44.894;20.286;2024-02-04T02:00:12;101390.81;;;7.84;85.14
40612;BME280;26317;44.894;20.286;2024-02-04T02:03:03;101390.81;;;7.84;85.27
40612;BME280;26317;44.894;20.286;2024-02-04T02:05:42;101384.41;;;7.85;84.91
40612;BME280;26317;44.894;20.286;2024-02-04T02:08:18;101391.50;;;7.68;85.42
40612;BME280;26317;44.894;20.286;2024-02-04T02:11:01;101389.75;;;7.73;85.99
40612;BME280;26317;44.894;20.286;2024-02-04T02:13:41;101383.97;;;7.76;86.22
40612;BME280;26317;44.894;20.286;2024-02-04T02:16:19;101375.16;;;7.76;85.52
40612;BME280;26317;44.894;20.286;2024-02-04T02:19:01;101383.59;;;7.73;85.60
40612;BME280;26317;44.894;20.286;2024-02-04T02:21:50;101390.56;;;7.74;85.66
40612;BME280;26317;44.894;20.286;2024-02-04T02:24:49;101382.22;;;7.70;85.77
40612;BME280;26317;44.894;20.286;2024-02-04T02:27:29;101391.41;;;7.74;85.76
40612;BME280;26317;44.894;20.286;2024-02-04T02:30:07;101389.41;;;7.70;86.34
40612;BME280;26317;44.894;20.286;2024-02-04T02:35:31;101390.56;;;7.74;86.14
40612;BME280;26317;44.894;20.286;2024-02-04T02:38:13;101340.88;;;7.50;86.16
40612;BME280;26317;44.894;20.286;2024-02-04T02:41:06;101380.59;;;7.69;86.46
40612;BME280;26317;44.894;20.286;2024-02-04T02:43:43;101343.06;;;7.41;86.95
40612;BME280;26317;44.894;20.286;2024-02-04T02:46:23;101378.03;;;7.63;87.03
40612;BME280;26317;44.894;20.286;2024-02-04T02:49:02;101376.88;;;7.59;87.56
40612;BME280;26317;44.894;20.286;2024-02-04T02:51:42;101370.25;;;7.61;88.23
40612;BME280;26317;44.894;20.286;2024-02-04T02:54:17;101381.28;;;7.65;87.85
40612;BME280;26317;44.894;20.286;2024-02-04T02:57:03;101369.69;;;7.71;87.75
40612;BME280;26317;44.894;20.286;2024-02-04T02:59:47;101376.66;;;7.72;87.39
40612;BME280;26317;44.894;20.286;2024-02-04T03:02:38;101385.72;;;7.71;87.52
40612;BME280;26317;44.894;20.286;2024-02-04T03:05:27;101370.16;;;7.68;87.67
40612;BME280;26317;44.894;20.286;2024-02-04T03:08:05;101376.75;;;7.77;87.57
40612;BME280;26317;44.894;20.286;2024-02-04T03:10:45;101369.34;;;7.79;87.63
40612;BME280;26317;44.894;20.286;2024-02-04T03:13:27;101366.19;;;7.82;87.43
40612;BME280;26317;44.894;20.286;2024-02-04T03:16:03;101383.84;;;7.83;87.03
40612;BME280;26317;44.894;20.286;2024-02-04T03:18:48;101375.38;;;7.86;87.27
40612;BME280;26317;44.894;20.286;2024-02-04T03:21:29;101362.28;;;7.84;87.16
40612;BME280;26317;44.894;20.286;2024-02-04T03:24:03;101364.22;;;7.89;86.59
40612;BME280;26317;44.894;20.286;2024-02-04T03:26:42;101367.34;;;7.86;86.63
40612;BME280;26317;44.894;20.286;2024-02-04T03:29:19;101374.34;;;7.87;86.60
40612;BME280;26317;44.894;20.286;2024-02-04T03:32:03;101374.34;;;7.87;86.46
40612;BME280;26317;44.894;20.286;2024-02-04T03:34:40;101385.84;;;7.88;86.35
40612;BME280;26317;44.894;20.286;2024-02-04T03:37:18;101384.19;;;7.86;86.37
40612;BME280;26317;44.894;20.286;2024-02-04T03:39:53;101393.16;;;7.92;86.52
40612;BME280;26317;44.894;20.286;2024-02-04T03:42:34;101380.25;;;7.89;86.75
40612;BME280;26317;44.894;20.286;2024-02-04T03:45:17;101375.03;;;7.94;87.14
40612;BME280;26317;44.894;20.286;2024-02-04T03:47:58;101359.59;;;7.96;86.85
40612;BME280;26317;44.894;20.286;2024-02-04T03:50:32;101340.88;;;7.96;86.98
40612;BME280;26317;44.894;20.286;2024-02-04T03:53:18;101340.63;;;7.98;87.23
40612;BME280;26317;44.894;20.286;2024-02-04T03:55:58;101339.13;;;8.02;87.02
40612;BME280;26317;44.894;20.286;2024-02-04T03:58:39;101324.88;;;7.96;87.04
40612;BME280;26317;44.894;20.286;2024-02-04T04:01:20;101323.22;;;7.95;87.05
40612;BME280;26317;44.894;20.286;2024-02-04T04:03:59;101337.63;;;7.94;87.07
40612;BME280;26317;44.894;20.286;2024-02-04T04:06:36;101334.97;;;7.94;87.02
40612;BME280;26317;44.894;20.286;2024-02-04T04:09:18;101343.44;;;7.91;86.79
40612;BME280;26317;44.894;20.286;2024-02-04T04:11:59;101343.44;;;7.91;86.76
40612;BME280;26317;44.894;20.286;2024-02-04T04:14:41;101352.16;;;7.86;87.38
40612;BME280;26317;44.894;20.286;2024-02-04T04:17:28;101334.28;;;7.87;87.74
40612;BME280;26317;44.894;20.286;2024-02-04T04:20:04;101339.63;;;7.87;87.95
40612;BME280;26317;44.894;20.286;2024-02-04T04:22:40;101345.53;;;7.89;87.68
40612;BME280;26317;44.894;20.286;2024-02-04T04:25:14;101341.25;;;7.88;87.79
40612;BME280;26317;44.894;20.286;2024-02-04T04:27:57;101326.97;;;7.82;88.33
40612;BME280;26317;44.894;20.286;2024-02-04T04:30:35;101340.19;;;7.89;88.55
40612;BME280;26317;44.894;20.286;2024-02-04T04:33:12;101331.94;;;7.91;88.59
40612;BME280;26317;44.894;20.286;2024-02-04T04:35:52;101336.81;;;7.94;88.63
40612;BME280;26317;44.894;20.286;2024-02-04T04:38:28;101333.91;;;7.95;88.68
40612;BME280;26317;44.894;20.286;2024-02-04T04:41:07;101349.13;;;7.95;88.22
40612;BME280;26317;44.894;20.286;2024-02-04T04:43:43;101353.91;;;7.93;87.79
40612;BME280;26317;44.894;20.286;2024-02-04T04:46:21;101341.94;;;7.83;88.05
40612;BME280;26317;44.894;20.286;2024-02-04T04:48:58;101322.31;;;7.78;88.63
40612;BME280;26317;44.894;20.286;2024-02-04T04:51:34;101311.63;;;7.78;89.13
40612;BME280;26317;44.894;20.286;2024-02-04T04:54:12;101329.50;;;7.77;88.94
40612;BME280;26317;44.894;20.286;2024-02-04T04:56:50;101356.81;;;7.79;88.66
40612;BME280;26317;44.894;20.286;2024-02-04T04:59:31;101368.75;;;7.77;89.05
40612;BME280;26317;44.894;20.286;2024-02-04T05:02:09;101370.38;;;7.78;88.57
40612;BME280;26317;44.894;20.286;2024-02-04T05:04:58;101355.38;;;7.77;88.66
40612;BME280;26317;44.894;20.286;2024-02-04T05:07:32;101357.59;;;7.68;88.76
40612;BME280;26317;44.894;20.286;2024-02-04T05:10:08;101347.50;;;7.59;89.27
40612;BME280;26317;44.894;20.286;2024-02-04T05:12:44;101345.53;;;7.66;89.31
40612;BME280;26317;44.894;20.286;2024-02-04T05:15:26;101351.13;;;7.76;89.10
40612;BME280;26317;44.894;20.286;2024-02-04T05:18:04;101344.63;;;7.72;89.41
40612;BME280;26317;44.894;20.286;2024-02-04T05:20:42;101353.06;;;7.69;89.25
40612;BME280;26317;44.894;20.286;2024-02-04T05:23:19;101353.06;;;7.69;89.08
40612;BME280;26317;44.894;20.286;2024-02-04T05:25:57;101365.28;;;7.76;89.02
40612;BME280;26317;44.894;20.286;2024-02-04T05:28:34;101359.13;;;7.76;88.59
40612;BME280;26317;44.894;20.286;2024-02-04T05:31:08;101368.53;;;7.78;88.46
40612;BME280;26317;44.894;20.286;2024-02-04T05:33:47;101347.38;;;7.77;88.32
40612;BME280;26317;44.894;20.286;2024-02-04T05:36:30;101355.75;;;7.69;88.00
40612;BME280;26317;44.894;20.286;2024-02-04T05:39:15;101355.16;;;7.67;88.55
40612;BME280;26317;44.894;20.286;2024-02-04T05:42:01;101358.66;;;7.67;88.03
40612;BME280;26317;44.894;20.286;2024-02-04T05:44:40;101363.19;;;7.67;88.83
40612;BME280;26317;44.894;20.286;2024-02-04T05:47:18;101381.41;;;7.58;87.94
40612;BME280;26317;44.894;20.286;2024-02-04T05:49:54;101376.75;;;7.54;88.77
40612;BME280;26317;44.894;20.286;2024-02-04T05:52:36;101388.09;;;7.49;89.49
40612;BME280;26317;44.894;20.286;2024-02-04T05:55:18;101384.63;;;7.49;89.52
40612;BME280;26317;44.894;20.286;2024-02-04T05:58:00;101384.88;;;7.47;89.73
40612;BME280;26317;44.894;20.286;2024-02-04T06:00:34;101398.09;;;7.54;89.45
40612;BME280;26317;44.894;20.286;2024-02-04T06:03:14;101402.97;;;7.57;89.29
40612;BME280;26317;44.894;20.286;2024-02-04T06:05:52;101404.59;;;7.58;89.25
40612;BME280;26317;44.894;20.286;2024-02-04T06:08:38;101405.78;;;7.62;89.02
40612;BME280;26317;44.894;20.286;2024-02-04T06:11:11;101413.31;;;7.65;89.15
40612;BME280;26317;44.894;20.286;2024-02-04T06:13:49;101415.53;;;7.68;88.97
40612;BME280;26317;44.894;20.286;2024-02-04T06:16:26;101408.44;;;7.73;87.97
40612;BME280;26317;44.894;20.286;2024-02-04T06:19:18;101403.03;;;7.80;87.00
40612;BME280;26317;44.894;20.286;2024-02-04T06:21:58;101394.41;;;7.78;87.35
40612;BME280;26317;44.894;20.286;2024-02-04T06:24:48;101406.16;;;7.89;87.10
40612;BME280;26317;44.894;20.286;2024-02-04T06:27:25;101401.16;;;7.92;86.61
40612;BME280;26317;44.894;20.286;2024-02-04T06:30:18;101393.38;;;8.02;86.74
40612;BME280;26317;44.894;20.286;2024-02-04T06:32:57;101403.63;;;8.05;86.71
40612;BME280;26317;44.894;20.286;2024-02-04T06:35:39;101397.19;;;8.06;86.69
40612;BME280;26317;44.894;20.286;2024-02-04T06:38:18;101405.59;;;8.10;86.20
40612;BME280;26317;44.894;20.286;2024-02-04T06:41:02;101400.59;;;8.13;86.15
40612;BME280;26317;44.894;20.286;2024-02-04T06:43:39;101397.44;;;8.16;86.04
40612;BME280;26317;44.894;20.286;2024-02-04T06:46:29;101389.09;;;8.13;86.02
40612;BME280;26317;44.894;20.286;2024-02-04T06:49:14;101394.06;;;8.21;86.58
40612;BME280;26317;44.894;20.286;2024-02-04T06:51:54;101394.88;;;8.21;86.52
40612;BME280;26317;44.894;20.286;2024-02-04T06:57:12;101396.06;;;8.14;86.68
40612;BME280;26317;44.894;20.286;2024-02-04T06:59:49;101405.25;;;8.18;87.16
40612;BME280;26317;44.894;20.286;2024-02-04T07:02:32;101408.13;;;8.16;87.24
40612;BME280;26317;44.894;20.286;2024-02-04T07:05:10;101403.81;;;8.15;88.25
40612;BME280;26317;44.894;20.286;2024-02-04T07:07:57;101412.53;;;8.22;88.24
40612;BME280;26317;44.894;20.286;2024-02-04T07:10:39;101409.28;;;8.20;88.57
40612;BME280;26317;44.894;20.286;2024-02-04T07:13:22;101419.38;;;8.18;88.23
40612;BME280;26317;44.894;20.286;2024-02-04T07:16:05;101423.47;;;8.21;88.85
40612;BME280;26317;44.894;20.286;2024-02-04T07:18:45;101412.31;;;8.24;88.76
40612;BME280;26317;44.894;20.286;2024-02-04T07:21:29;101418.47;;;8.24;88.65
40612;BME280;26317;44.894;20.286;2024-02-04T07:24:05;101416.38;;;8.26;88.89
40612;BME280;26317;44.894;20.286;2024-02-04T07:26:44;101423.16;;;8.29;88.85
40612;BME280;26317;44.894;20.286;2024-02-04T07:29:24;101421.63;;;8.33;88.68
40612;BME280;26317;44.894;20.286;2024-02-04T07:32:01;101434.03;;;8.39;89.21
40612;BME280;26317;44.894;20.286;2024-02-04T07:34:34;101429.88;;;8.43;89.84
40612;BME280;26317;44.894;20.286;2024-02-04T07:37:14;101438.81;;;8.49;89.86
40612;BME280;26317;44.894;20.286;2024-02-04T07:39:51;101428.72;;;8.51;89.76
40612;BME280;26317;44.894;20.286;2024-02-04T07:42:31;101417.88;;;8.57;90.24
40612;BME280;26317;44.894;20.286;2024-02-04T07:45:13;101426.56;;;8.64;90.12
40612;BME280;26317;44.894;20.286;2024-02-04T07:47:49;101417.28;;;8.67;90.65
40612;BME280;26317;44.894;20.286;2024-02-04T07:50:23;101416.78;;;8.70;90.63
40612;BME280;26317;44.894;20.286;2024-02-04T07:53:03;101410.41;;;8.71;90.46
40612;BME280;26317;44.894;20.286;2024-02-04T07:55:44;101419.25;;;8.71;90.62
40612;BME280;26317;44.894;20.286;2024-02-04T07:58:23;101417.47;;;8.77;90.63
40612;BME280;26317;44.894;20.286;2024-02-04T08:01:06;101433.06;;;8.80;91.59
40612;BME280;26317;44.894;20.286;2024-02-04T08:03:39;101434.78;;;8.86;91.50
40612;BME280;26317;44.894;20.286;2024-02-04T08:06:20;101445.59;;;8.91;91.46
40612;BME280;26317;44.894;20.286;2024-02-04T08:08:59;101433.41;;;8.84;91.14
40612;BME280;26317;44.894;20.286;2024-02-04T08:11:39;101440.56;;;8.95;91.13
40612;BME280;26317;44.894;20.286;2024-02-04T08:14:13;101439.03;;;8.99;91.20
40612;BME280;26317;44.894;20.286;2024-02-04T08:16:59;101442.25;;;9.12;90.60
40612;BME280;26317;44.894;20.286;2024-02-04T08:19:42;101447.00;;;9.22;89.97
40612;BME280;26317;44.894;20.286;2024-02-04T08:22:27;101442.47;;;9.22;89.82
40612;BME280;26317;44.894;20.286;2024-02-04T08:25:07;101450.19;;;9.36;89.57
40612;BME280;26317;44.894;20.286;2024-02-04T08:27:46;101468.63;;;9.49;88.29
40612;BME280;26317;44.894;20.286;2024-02-04T08:30:33;101459.38;;;9.56;87.30
40612;BME280;26317;44.894;20.286;2024-02-04T08:33:17;101448.22;;;9.59;85.22
40612;BME280;26317;44.894;20.286;2024-02-04T08:35:51;101446.28;;;9.72;84.81
40612;BME280;26317;44.894;20.286;2024-02-04T08:38:27;101446.59;;;9.75;84.81
40612;BME280;26317;44.894;20.286;2024-02-04T08:41:02;101445.78;;;9.91;85.63
40612;BME280;26317;44.894;20.286;2024-02-04T08:43:41;101451.31;;;10.01;86.35
40612;BME280;26317;44.894;20.286;2024-02-04T08:46:31;101444.88;;;10.02;86.40
40612;BME280;26317;44.894;20.286;2024-02-04T08:49:11;101435.97;;;10.13;85.92
40612;BME280;26317;44.894;20.286;2024-02-04T08:51:50;101439.31;;;10.21;85.89
40612;BME280;26317;44.894;20.286;2024-02-04T08:54:24;101451.63;;;10.38;82.21
40612;BME280;26317;44.894;20.286;2024-02-04T08:57:06;101448.22;;;10.43;81.27
40612;BME280;26317;44.894;20.286;2024-02-04T08:59:44;101451.09;;;10.58;80.48
40612;BME280;26317;44.894;20.286;2024-02-04T09:02:18;101440.34;;;10.58;78.04
40612;BME280;26317;44.894;20.286;2024-02-04T09:04:59;101432.94;;;10.65;79.48
40612;BME280;26317;44.894;20.286;2024-02-04T09:07:50;101433.16;;;10.80;78.84
40612;BME280;26317;44.894;20.286;2024-02-04T09:10:28;101417.84;;;10.81;78.57
40612;BME280;26317;44.894;20.286;2024-02-04T09:13:13;101423.16;;;10.97;78.79
40612;BME280;26317;44.894;20.286;2024-02-04T09:15:55;101409.72;;;10.97;79.55
40612;BME280;26317;44.894;20.286;2024-02-04T09:18:40;101427.09;;;11.17;79.48
40612;BME280;26317;44.894;20.286;2024-02-04T09:21:23;101414.03;;;11.25;80.29
40612;BME280;26317;44.894;20.286;2024-02-04T09:24:01;101419.16;;;11.27;79.55
40612;BME280;26317;44.894;20.286;2024-02-04T09:26:38;101416.88;;;11.40;79.94
40612;BME280;26317;44.894;20.286;2024-02-04T09:29:15;101426.34;;;11.48;80.59
40612;BME280;26317;44.894;20.286;2024-02-04T09:31:53;101437.75;;;11.60;79.41
40612;BME280;26317;44.894;20.286;2024-02-04T09:34:31;101429.72;;;11.65;79.91
40612;BME280;26317;44.894;20.286;2024-02-04T09:37:08;101437.34;;;11.73;79.88
40612;BME280;26317;44.894;20.286;2024-02-04T09:39:52;101457.34;;;11.87;80.12
40612;BME280;26317;44.894;20.286;2024-02-04T09:42:40;101471.44;;;11.99;78.46
40612;BME280;26317;44.894;20.286;2024-02-04T09:45:25;101459.75;;;12.21;78.41
40612;BME280;26317;44.894;20.286;2024-02-04T09:48:10;101462.25;;;12.32;76.87
40612;BME280;26317;44.894;20.286;2024-02-04T09:50:48;101448.09;;;12.47;77.03
40612;BME280;26317;44.894;20.286;2024-02-04T09:53:33;101443.84;;;12.61;76.78
40612;BME280;26317;44.894;20.286;2024-02-04T09:56:13;101447.66;;;12.70;76.54
40612;BME280;26317;44.894;20.286;2024-02-04T09:59:01;101435.59;;;12.83;75.61
40612;BME280;26317;44.894;20.286;2024-02-04T10:01:41;101434.59;;;12.94;74.37
40612;BME280;26317;44.894;20.286;2024-02-04T10:04:24;101430.78;;;12.90;74.86
40612;BME280;26317;44.894;20.286;2024-02-04T10:07:23;101435.69;;;13.03;74.52
40612;BME280;26317;44.894;20.286;2024-02-04T10:10:49;101438.66;;;13.07;72.95
40612;BME280;26317;44.894;20.286;2024-02-04T10:13:49;101436.03;;;13.17;73.02
40612;BME280;26317;44.894;20.286;2024-02-04T10:16:28;101421.22;;;13.24;72.63
40612;BME280;26317;44.894;20.286;2024-02-04T10:19:05;101402.34;;;13.24;71.79
40612;BME280;26317;44.894;20.286;2024-02-04T10:21:44;101404.28;;;13.44;72.48
40612;BME280;26317;44.894;20.286;2024-02-04T10:24:39;101406.97;;;13.49;70.75
40612;BME280;26317;44.894;20.286;2024-02-04T10:27:28;101405.09;;;13.55;70.67
40612;BME280;26317;44.894;20.286;2024-02-04T10:30:37;101415.34;;;13.58;71.31
40612;BME280;26317;44.894;20.286;2024-02-04T10:33:23;101399.44;;;13.71;70.67
40612;BME280;26317;44.894;20.286;2024-02-04T10:35:59;101390.00;;;13.94;72.42
40612;BME280;26317;44.894;20.286;2024-02-04T10:38:49;101391.84;;;14.14;69.45
40612;BME280;26317;44.894;20.286;2024-02-04T10:41:30;101396.63;;;14.32;68.83
40612;BME280;26317;44.894;20.286;2024-02-04T10:44:31;101388.00;;;14.45;67.33
40612;BME280;26317;44.894;20.286;2024-02-04T10:47:22;101371.28;;;14.38;66.56
40612;BME280;26317;44.894;20.286;2024-02-04T10:50:02;101373.44;;;14.36;68.61
40612;BME280;26317;44.894;20.286;2024-02-04T10:52:47;101374.81;;;14.39;67.01
40612;BME280;26317;44.894;20.286;2024-02-04T10:55:30;101381.78;;;14.35;68.15
40612;BME280;26317;44.894;20.286;2024-02-04T10:58:25;101374.28;;;14.26;67.93
40612;BME280;26317;44.894;20.286;2024-02-04T11:01:26;101378.06;;;14.20;64.61
40612;BME280;26317;44.894;20.286;2024-02-04T11:04:08;101374.59;;;14.10;64.40
40612;BME280;26317;44.894;20.286;2024-02-04T11:07:14;101381.88;;;14.09;64.70
40612;BME280;26317;44.894;20.286;2024-02-04T11:10:08;101366.75;;;14.08;64.96
40612;BME280;26317;44.894;20.286;2024-02-04T11:12:45;101372.41;;;14.12;64.51
40612;BME280;26317;44.894;20.286;2024-02-04T11:15:35;101369.16;;;14.20;65.83
40612;BME280;26317;44.894;20.286;2024-02-04T11:21:54;101345.38;;;14.42;64.41
40612;BME280;26317;44.894;20.286;2024-02-04T11:25:07;101344.22;;;14.53;68.50
40612;BME280;26317;44.894;20.286;2024-02-04T11:28:01;101337.34;;;14.81;67.74
40612;BME280;26317;44.894;20.286;2024-02-04T11:30:36;101330.56;;;14.84;63.52
40612;BME280;26317;44.894;20.286;2024-02-04T11:33:33;101324.69;;;14.77;63.51
40612;BME280;26317;44.894;20.286;2024-02-04T11:36:39;101315.66;;;14.91;64.84
40612;BME280;26317;44.894;20.286;2024-02-04T11:39:48;101317.22;;;15.02;64.15
40612;BME280;26317;44.894;20.286;2024-02-04T11:42:32;101309.44;;;14.91;63.52
40612;BME280;26317;44.894;20.286;2024-02-04T11:45:21;101303.53;;;14.89;63.65
40612;BME280;26317;44.894;20.286;2024-02-04T11:48:00;101308.44;;;14.82;64.12
40612;BME280;26317;44.894;20.286;2024-02-04T11:50:42;101301.94;;;14.83;64.48
40612;BME280;26317;44.894;20.286;2024-02-04T11:53:24;101303.56;;;14.84;64.39
40612;BME280;26317;44.894;20.286;2024-02-04T11:56:26;101298.72;;;14.81;64.54
40612;BME280;26317;44.894;20.286;2024-02-04T11:59:03;101305.22;;;14.74;65.20
40612;BME280;26317;44.894;20.286;2024-02-04T12:01:44;101301.44;;;14.76;64.43
40612;BME280;26317;44.894;20.286;2024-02-04T12:04:39;101301.50;;;14.65;65.03
40612;BME280;26317;44.894;20.286;2024-02-04T12:07:19;101286.88;;;14.77;65.69
40612;BME280;26317;44.894;20.286;2024-02-04T12:09:55;101286.75;;;14.92;64.94
40612;BME280;26317;44.894;20.286;2024-02-04T12:12:41;101287.22;;;14.99;63.86
40612;BME280;26317;44.894;20.286;2024-02-04T12:15:42;101285.31;;;15.04;63.39
40612;BME280;26317;44.894;20.286;2024-02-04T12:18:39;101276.94;;;15.06;63.73
40612;BME280;26317;44.894;20.286;2024-02-04T12:21:36;101271.56;;;15.01;63.76
40612;BME280;26317;44.894;20.286;2024-02-04T12:24:32;101286.09;;;15.10;63.82
40612;BME280;26317;44.894;20.286;2024-02-04T12:27:23;101279.06;;;15.09;63.53
40612;BME280;26317;44.894;20.286;2024-02-04T12:30:18;101266.97;;;15.01;64.50
40612;BME280;26317;44.894;20.286;2024-02-04T12:33:03;101263.63;;;15.14;63.03
40612;BME280;26317;44.894;20.286;2024-02-04T12:35:44;101271.44;;;15.16;63.08
40612;BME280;26317;44.894;20.286;2024-02-04T12:38:33;101270.84;;;14.90;63.17
40612;BME280;26317;44.894;20.286;2024-02-04T12:41:09;101248.16;;;14.86;64.02
40612;BME280;26317;44.894;20.286;2024-02-04T12:44:17;101260.19;;;15.04;63.26
40612;BME280;26317;44.894;20.286;2024-02-04T12:47:06;101254.13;;;15.17;63.48
40612;BME280;26317;44.894;20.286;2024-02-04T12:52:35;101253.91;;;15.13;62.50
40612;BME280;26317;44.894;20.286;2024-02-04T12:55:28;101258.50;;;15.13;62.41
40612;BME280;26317;44.894;20.286;2024-02-04T12:58:09;101261.16;;;15.18;63.07
40612;BME280;26317;44.894;20.286;2024-02-04T13:01:00;101253.56;;;15.20;62.70
40612;BME280;26317;44.894;20.286;2024-02-04T13:03:47;101247.06;;;15.21;62.10
40612;BME280;26317;44.894;20.286;2024-02-04T13:06:40;101247.50;;;15.33;62.15
40612;BME280;26317;44.894;20.286;2024-02-04T13:09:21;101243.38;;;15.41;61.92
40612;BME280;26317;44.894;20.286;2024-02-04T13:12:05;101245.81;;;15.42;63.40
40612;BME280;26317;44.894;20.286;2024-02-04T13:14:56;101259.09;;;15.39;62.95
40612;BME280;26317;44.894;20.286;2024-02-04T13:17:34;101257.22;;;15.34;62.74
40612;BME280;26317;44.894;20.286;2024-02-04T13:20:33;101254.59;;;15.24;62.83
40612;BME280;26317;44.894;20.286;2024-02-04T13:23:16;101244.38;;;15.21;63.07
40612;BME280;26317;44.894;20.286;2024-02-04T13:26:09;101250.63;;;15.16;62.74
40612;BME280;26317;44.894;20.286;2024-02-04T13:29:11;101237.13;;;15.16;62.75
40612;BME280;26317;44.894;20.286;2024-02-04T13:32:06;101221.19;;;15.15;62.30
40612;BME280;26317;44.894;20.286;2024-02-04T13:34:48;101217.03;;;15.28;62.20
40612;BME280;26317;44.894;20.286;2024-02-04T13:37:43;101217.19;;;15.36;61.39
40612;BME280;26317;44.894;20.286;2024-02-04T13:40:23;101211.22;;;15.39;61.19
40612;BME280;26317;44.894;20.286;2024-02-04T13:43:11;101219.63;;;15.38;61.42
40612;BME280;26317;44.894;20.286;2024-02-04T13:45:58;101220.69;;;15.37;61.86
40612;BME280;26317;44.894;20.286;2024-02-04T13:48:48;101215.41;;;15.27;61.26
40612;BME280;26317;44.894;20.286;2024-02-04T13:51:28;101207.72;;;15.39;61.50
40612;BME280;26317;44.894;20.286;2024-02-04T13:54:36;101218.72;;;15.47;61.30
40612;BME280;26317;44.894;20.286;2024-02-04T13:57:18;101214.88;;;15.53;61.28
40612;BME280;26317;44.894;20.286;2024-02-04T14:00:01;101206.28;;;15.51;61.04
40612;BME280;26317;44.894;20.286;2024-02-04T14:02:38;101216.72;;;15.58;60.20
40612;BME280;26317;44.894;20.286;2024-02-04T14:05:19;101225.69;;;15.53;60.77
40612;BME280;26317;44.894;20.286;2024-02-04T14:08:00;101237.00;;;15.60;60.72
40612;BME280;26317;44.894;20.286;2024-02-04T14:10:47;101233.25;;;15.56;61.08
40612;BME280;26317;44.894;20.286;2024-02-04T14:13:28;101245.75;;;15.52;61.76
40612;BME280;26317;44.894;20.286;2024-02-04T14:16:06;101251.59;;;15.59;61.70